sensor_id;sensor_type;location;lat;lon;timestamp;P1;durP1;ratioP1;P2;durP2;ratioP2
14768;SDS011;7476;49.404;11.152;2022-11-15T00:00:28;9.87;;;7.27;;
14768;SDS011;7476;49.404;11.152;2022-11-15T00:02:55;9.67;;;7.23;;
14768;SDS011;7476;49.404;11.152;2022-11-15T00:05:22;9.43;;;6.97;;
14768;SDS011;7476;49.404;11.152;2022-11-15T00:07:49;9.97;;;7.60;;
14768;SDS011;7476;49.404;11.152;2022-11-15T00:10:17;9.60;;;8.07;;
14768;SDS011;7476;49.404;11.152;2022-11-15T00:12:44;11.57;;;7.80;;
14768;SDS011;7476;49.404;11.152;2022-11-15T00:15:10;9.97;;;7.33;;
14768;SDS011;7476;49.404;11.152;2022-11-15T00:17:37;8.10;;;6.90;;
14768;SDS011;7476;49.404;11.152;2022-11-15T00:20:04;10.17;;;7.40;;
14768;SDS011;7476;49.404;11.152;2022-11-15T00:22:31;8.77;;;6.87;;
14768;SDS011;7476;49.404;11.152;2022-11-15T00:24:59;9.30;;;7.93;;
14768;SDS011;7476;49.404;11.152;2022-11-15T00:27:27;10.27;;;7.87;;
14768;SDS011;7476;49.404;11.152;2022-11-15T00:29:54;8.47;;;7.40;;
14768;SDS011;7476;49.404;11.152;2022-11-15T00:32:20;9.70;;;7.63;;
14768;SDS011;7476;49.404;11.152;2022-11-15T00:34:47;9.77;;;7.87;;
14768;SDS011;7476;49.404;11.152;2022-11-15T00:37:14;9.40;;;8.20;;
14768;SDS011;7476;49.404;11.152;2022-11-15T00:39:40;10.40;;;7.97;;
14768;SDS011;7476;49.404;11.152;2022-11-15T00:42:07;8.97;;;7.63;;
14768;SDS011;7476;49.404;11.152;2022-11-15T00:44:35;9.77;;;7.93;;
14768;SDS011;7476;49.404;11.152;2022-11-15T00:47:02;9.00;;;7.00;;
14768;SDS011;7476;49.404;11.152;2022-11-15T00:49:29;8.83;;;7.60;;
14768;SDS011;7476;49.404;11.152;2022-11-15T00:51:55;9.13;;;7.87;;
14768;SDS011;7476;49.404;11.152;2022-11-15T00:54:22;9.43;;;7.60;;
14768;SDS011;7476;49.404;11.152;2022-11-15T00:56:49;9.70;;;7.80;;
14768;SDS011;7476;49.404;11.152;2022-11-15T00:59:15;12.27;;;7.73;;
14768;SDS011;7476;49.404;11.152;2022-11-15T01:01:44;8.30;;;7.23;;
14768;SDS011;7476;49.404;11.152;2022-11-15T01:04:10;10.03;;;7.40;;
14768;SDS011;7476;49.404;11.152;2022-11-15T01:06:37;10.30;;;8.07;;
14768;SDS011;7476;49.404;11.152;2022-11-15T01:09:04;10.03;;;7.73;;
14768;SDS011;7476;49.404;11.152;2022-11-15T01:11:30;9.67;;;8.03;;
14768;SDS011;7476;49.404;11.152;2022-11-15T01:13:57;10.50;;;7.83;;
14768;SDS011;7476;49.404;11.152;2022-11-15T01:16:24;10.27;;;8.10;;
14768;SDS011;7476;49.404;11.152;2022-11-15T01:18:52;11.87;;;8.10;;
14768;SDS011;7476;49.404;11.152;2022-11-15T01:21:18;10.90;;;7.37;;
14768;SDS011;7476;49.404;11.152;2022-11-15T01:23:45;8.57;;;7.03;;
14768;SDS011;7476;49.404;11.152;2022-11-15T01:26:13;11.90;;;7.90;;
14768;SDS011;7476;49.404;11.152;2022-11-15T01:28:41;10.93;;;7.87;;
14768;SDS011;7476;49.404;11.152;2022-11-15T01:31:09;10.10;;;8.00;;
14768;SDS011;7476;49.404;11.152;2022-11-15T01:33:38;10.50;;;8.40;;
14768;SDS011;7476;49.404;11.152;2022-11-15T01:36:07;9.90;;;7.60;;
14768;SDS011;7476;49.404;11.152;2022-11-15T01:38:36;8.53;;;7.10;;
14768;SDS011;7476;49.404;11.152;2022-11-15T01:41:03;9.67;;;6.73;;
14768;SDS011;7476;49.404;11.152;2022-11-15T01:43:31;10.00;;;7.27;;
14768;SDS011;7476;49.404;11.152;2022-11-15T01:46:00;9.23;;;6.90;;
14768;SDS011;7476;49.404;11.152;2022-11-15T01:48:30;7.67;;;6.47;;
14768;SDS011;7476;49.404;11.152;2022-11-15T01:50:59;9.80;;;7.30;;
14768;SDS011;7476;49.404;11.152;2022-11-15T01:53:29;10.17;;;7.10;;
14768;SDS011;7476;49.404;11.152;2022-11-15T01:55:59;9.00;;;6.60;;
14768;SDS011;7476;49.404;11.152;2022-11-15T01:58:30;10.37;;;7.23;;
14768;SDS011;7476;49.404;11.152;2022-11-15T02:00:57;9.33;;;6.53;;
14768;SDS011;7476;49.404;11.152;2022-11-15T02:03:26;8.83;;;6.63;;
14768;SDS011;7476;49.404;11.152;2022-11-15T02:05:56;8.97;;;6.90;;
14768;SDS011;7476;49.404;11.152;2022-11-15T02:08:24;8.73;;;7.13;;
14768;SDS011;7476;49.404;11.152;2022-11-15T02:10:53;9.63;;;7.03;;
14768;SDS011;7476;49.404;11.152;2022-11-15T02:13:19;8.07;;;6.90;;
14768;SDS011;7476;49.404;11.152;2022-11-15T02:15:49;8.00;;;6.60;;
14768;SDS011;7476;49.404;11.152;2022-11-15T02:18:23;8.93;;;6.83;;
14768;SDS011;7476;49.404;11.152;2022-11-15T02:21:09;8.33;;;7.43;;
14768;SDS011;7476;49.404;11.152;2022-11-15T02:26:46;10.17;;;7.23;;
14768;SDS011;7476;49.404;11.152;2022-11-15T02:29:35;9.73;;;7.80;;
14768;SDS011;7476;49.404;11.152;2022-11-15T02:32:18;9.83;;;7.57;;
14768;SDS011;7476;49.404;11.152;2022-11-15T02:34:51;9.50;;;7.43;;
14768;SDS011;7476;49.404;11.152;2022-11-15T02:37:29;8.47;;;7.17;;
14768;SDS011;7476;49.404;11.152;2022-11-15T02:40:06;9.57;;;7.27;;
14768;SDS011;7476;49.404;11.152;2022-11-15T02:42:39;9.47;;;7.37;;
14768;SDS011;7476;49.404;11.152;2022-11-15T02:45:29;9.57;;;6.70;;
14768;SDS011;7476;49.404;11.152;2022-11-15T02:48:00;8.70;;;6.80;;
14768;SDS011;7476;49.404;11.152;2022-11-15T02:50:29;11.50;;;6.87;;
14768;SDS011;7476;49.404;11.152;2022-11-15T02:52:58;9.30;;;6.67;;
14768;SDS011;7476;49.404;11.152;2022-11-15T02:55:25;10.03;;;6.73;;
14768;SDS011;7476;49.404;11.152;2022-11-15T02:58:00;8.73;;;6.43;;
14768;SDS011;7476;49.404;11.152;2022-11-15T03:00:45;9.77;;;6.90;;
14768;SDS011;7476;49.404;11.152;2022-11-15T03:06:18;11.37;;;7.83;;
14768;SDS011;7476;49.404;11.152;2022-11-15T03:08:53;11.13;;;8.80;;
14768;SDS011;7476;49.404;11.152;2022-11-15T03:11:28;11.13;;;7.70;;
14768;SDS011;7476;49.404;11.152;2022-11-15T03:14:00;8.93;;;7.30;;
14768;SDS011;7476;49.404;11.152;2022-11-15T03:16:35;9.63;;;6.90;;
14768;SDS011;7476;49.404;11.152;2022-11-15T03:19:06;8.13;;;6.73;;
14768;SDS011;7476;49.404;11.152;2022-11-15T03:21:39;10.53;;;7.17;;
14768;SDS011;7476;49.404;11.152;2022-11-15T03:24:07;8.37;;;6.73;;
14768;SDS011;7476;49.404;11.152;2022-11-15T03:26:36;8.30;;;6.27;;
14768;SDS011;7476;49.404;11.152;2022-11-15T03:29:08;7.97;;;6.90;;
14768;SDS011;7476;49.404;11.152;2022-11-15T03:31:39;8.53;;;6.93;;
14768;SDS011;7476;49.404;11.152;2022-11-15T03:34:15;9.07;;;7.00;;
14768;SDS011;7476;49.404;11.152;2022-11-15T03:36:48;9.37;;;6.97;;
14768;SDS011;7476;49.404;11.152;2022-11-15T03:39:17;9.80;;;6.57;;
14768;SDS011;7476;49.404;11.152;2022-11-15T03:41:46;9.67;;;6.97;;
14768;SDS011;7476;49.404;11.152;2022-11-15T03:44:19;8.40;;;6.63;;
14768;SDS011;7476;49.404;11.152;2022-11-15T03:46:53;10.43;;;7.50;;
14768;SDS011;7476;49.404;11.152;2022-11-15T03:49:27;11.50;;;7.70;;
14768;SDS011;7476;49.404;11.152;2022-11-15T03:51:56;10.47;;;7.47;;
14768;SDS011;7476;49.404;11.152;2022-11-15T03:54:23;9.67;;;7.37;;
14768;SDS011;7476;49.404;11.152;2022-11-15T03:56:50;10.50;;;7.37;;
14768;SDS011;7476;49.404;11.152;2022-11-15T03:59:18;9.63;;;7.53;;
14768;SDS011;7476;49.404;11.152;2022-11-15T04:01:45;10.53;;;7.60;;
14768;SDS011;7476;49.404;11.152;2022-11-15T04:04:12;8.43;;;7.53;;
14768;SDS011;7476;49.404;11.152;2022-11-15T04:06:40;10.57;;;6.97;;
14768;SDS011;7476;49.404;11.152;2022-11-15T04:09:06;9.43;;;7.30;;
14768;SDS011;7476;49.404;11.152;2022-11-15T04:11:33;8.07;;;6.47;;
14768;SDS011;7476;49.404;11.152;2022-11-15T04:14:00;8.73;;;6.40;;
14768;SDS011;7476;49.404;11.152;2022-11-15T04:16:26;7.07;;;6.00;;
14768;SDS011;7476;49.404;11.152;2022-11-15T04:18:53;8.13;;;6.67;;
14768;SDS011;7476;49.404;11.152;2022-11-15T04:21:34;7.03;;;6.23;;
14768;SDS011;7476;49.404;11.152;2022-11-15T04:24:19;6.93;;;6.10;;
14768;SDS011;7476;49.404;11.152;2022-11-15T04:26:46;9.47;;;6.47;;
14768;SDS011;7476;49.404;11.152;2022-11-15T04:29:13;8.90;;;5.50;;
14768;SDS011;7476;49.404;11.152;2022-11-15T04:31:57;8.10;;;5.57;;
14768;SDS011;7476;49.404;11.152;2022-11-15T04:34:24;7.93;;;5.80;;
14768;SDS011;7476;49.404;11.152;2022-11-15T04:36:50;7.83;;;5.63;;
14768;SDS011;7476;49.404;11.152;2022-11-15T04:39:36;8.70;;;5.60;;
14768;SDS011;7476;49.404;11.152;2022-11-15T04:42:02;7.50;;;5.67;;
14768;SDS011;7476;49.404;11.152;2022-11-15T04:44:29;6.17;;;5.27;;
14768;SDS011;7476;49.404;11.152;2022-11-15T04:46:56;5.80;;;5.17;;
14768;SDS011;7476;49.404;11.152;2022-11-15T04:49:23;6.50;;;5.13;;
14768;SDS011;7476;49.404;11.152;2022-11-15T04:51:49;7.03;;;5.50;;
14768;SDS011;7476;49.404;11.152;2022-11-15T04:54:16;5.63;;;4.80;;
14768;SDS011;7476;49.404;11.152;2022-11-15T04:56:44;6.53;;;5.83;;
14768;SDS011;7476;49.404;11.152;2022-11-15T04:59:11;6.30;;;5.27;;
14768;SDS011;7476;49.404;11.152;2022-11-15T05:01:37;6.83;;;4.90;;
14768;SDS011;7476;49.404;11.152;2022-11-15T05:04:04;6.93;;;5.33;;
14768;SDS011;7476;49.404;11.152;2022-11-15T05:06:45;7.13;;;5.23;;
14768;SDS011;7476;49.404;11.152;2022-11-15T05:09:13;5.40;;;4.50;;
14768;SDS011;7476;49.404;11.152;2022-11-15T05:11:40;6.63;;;5.63;;
14768;SDS011;7476;49.404;11.152;2022-11-15T05:14:08;7.17;;;5.30;;
14768;SDS011;7476;49.404;11.152;2022-11-15T05:16:35;5.83;;;5.07;;
14768;SDS011;7476;49.404;11.152;2022-11-15T05:19:02;6.30;;;5.27;;
14768;SDS011;7476;49.404;11.152;2022-11-15T05:21:29;8.57;;;6.23;;
14768;SDS011;7476;49.404;11.152;2022-11-15T05:23:56;7.30;;;5.67;;
14768;SDS011;7476;49.404;11.152;2022-11-15T05:26:23;8.13;;;6.37;;
14768;SDS011;7476;49.404;11.152;2022-11-15T05:28:53;8.10;;;6.10;;
14768;SDS011;7476;49.404;11.152;2022-11-15T05:31:22;8.87;;;6.47;;
14768;SDS011;7476;49.404;11.152;2022-11-15T05:33:50;8.43;;;6.23;;
14768;SDS011;7476;49.404;11.152;2022-11-15T05:36:18;9.07;;;6.57;;
14768;SDS011;7476;49.404;11.152;2022-11-15T05:38:51;9.67;;;7.40;;
14768;SDS011;7476;49.404;11.152;2022-11-15T05:41:18;9.03;;;7.10;;
14768;SDS011;7476;49.404;11.152;2022-11-15T05:43:48;8.40;;;6.77;;
14768;SDS011;7476;49.404;11.152;2022-11-15T05:46:16;10.10;;;7.63;;
14768;SDS011;7476;49.404;11.152;2022-11-15T05:48:45;8.57;;;7.67;;
14768;SDS011;7476;49.404;11.152;2022-11-15T05:51:15;9.50;;;7.03;;
14768;SDS011;7476;49.404;11.152;2022-11-15T05:53:43;9.30;;;7.37;;
14768;SDS011;7476;49.404;11.152;2022-11-15T05:56:11;10.37;;;7.23;;
14768;SDS011;7476;49.404;11.152;2022-11-15T05:58:39;10.27;;;7.23;;
14768;SDS011;7476;49.404;11.152;2022-11-15T06:01:07;9.07;;;6.67;;
14768;SDS011;7476;49.404;11.152;2022-11-15T06:03:33;8.63;;;6.70;;
14768;SDS011;7476;49.404;11.152;2022-11-15T06:06:02;9.37;;;7.47;;
14768;SDS011;7476;49.404;11.152;2022-11-15T06:08:29;9.07;;;7.03;;
14768;SDS011;7476;49.404;11.152;2022-11-15T06:10:55;9.67;;;6.70;;
14768;SDS011;7476;49.404;11.152;2022-11-15T06:13:22;8.23;;;6.70;;
14768;SDS011;7476;49.404;11.152;2022-11-15T06:15:49;7.90;;;6.40;;
14768;SDS011;7476;49.404;11.152;2022-11-15T06:18:15;8.77;;;5.73;;
14768;SDS011;7476;49.404;11.152;2022-11-15T06:20:42;8.57;;;5.77;;
14768;SDS011;7476;49.404;11.152;2022-11-15T06:23:10;7.23;;;5.43;;
14768;SDS011;7476;49.404;11.152;2022-11-15T06:25:38;8.30;;;5.77;;
14768;SDS011;7476;49.404;11.152;2022-11-15T06:28:05;7.20;;;5.40;;
14768;SDS011;7476;49.404;11.152;2022-11-15T06:30:31;7.73;;;6.20;;
14768;SDS011;7476;49.404;11.152;2022-11-15T06:32:59;6.87;;;5.67;;
14768;SDS011;7476;49.404;11.152;2022-11-15T06:35:27;6.77;;;5.77;;
14768;SDS011;7476;49.404;11.152;2022-11-15T06:37:54;9.07;;;6.00;;
14768;SDS011;7476;49.404;11.152;2022-11-15T06:40:22;7.80;;;5.67;;
14768;SDS011;7476;49.404;11.152;2022-11-15T06:42:48;7.00;;;5.50;;
14768;SDS011;7476;49.404;11.152;2022-11-15T06:45:15;6.37;;;5.47;;
14768;SDS011;7476;49.404;11.152;2022-11-15T06:47:45;6.50;;;4.93;;
14768;SDS011;7476;49.404;11.152;2022-11-15T06:50:12;8.00;;;5.30;;
14768;SDS011;7476;49.404;11.152;2022-11-15T06:52:39;7.47;;;5.87;;
14768;SDS011;7476;49.404;11.152;2022-11-15T06:55:06;9.23;;;5.90;;
14768;SDS011;7476;49.404;11.152;2022-11-15T06:57:35;8.00;;;5.83;;
14768;SDS011;7476;49.404;11.152;2022-11-15T07:00:03;7.60;;;5.73;;
14768;SDS011;7476;49.404;11.152;2022-11-15T07:02:30;8.23;;;6.00;;
14768;SDS011;7476;49.404;11.152;2022-11-15T07:04:57;7.10;;;6.03;;
14768;SDS011;7476;49.404;11.152;2022-11-15T07:07:24;8.73;;;5.97;;
14768;SDS011;7476;49.404;11.152;2022-11-15T07:09:50;9.70;;;6.37;;
14768;SDS011;7476;49.404;11.152;2022-11-15T07:12:18;8.33;;;6.03;;
14768;SDS011;7476;49.404;11.152;2022-11-15T07:14:46;6.97;;;6.03;;
14768;SDS011;7476;49.404;11.152;2022-11-15T07:17:13;7.30;;;6.00;;
14768;SDS011;7476;49.404;11.152;2022-11-15T07:19:39;7.50;;;6.20;;
14768;SDS011;7476;49.404;11.152;2022-11-15T07:22:06;8.13;;;6.23;;
14768;SDS011;7476;49.404;11.152;2022-11-15T07:24:33;7.57;;;6.23;;
14768;SDS011;7476;49.404;11.152;2022-11-15T07:27:00;9.03;;;6.60;;
14768;SDS011;7476;49.404;11.152;2022-11-15T07:29:26;9.27;;;6.93;;
14768;SDS011;7476;49.404;11.152;2022-11-15T07:31:55;9.80;;;6.80;;
14768;SDS011;7476;49.404;11.152;2022-11-15T07:34:21;8.13;;;5.80;;
14768;SDS011;7476;49.404;11.152;2022-11-15T07:36:48;7.17;;;5.93;;
14768;SDS011;7476;49.404;11.152;2022-11-15T07:39:15;9.10;;;6.70;;
14768;SDS011;7476;49.404;11.152;2022-11-15T07:41:42;8.23;;;5.70;;
14768;SDS011;7476;49.404;11.152;2022-11-15T07:44:09;7.70;;;5.83;;
14768;SDS011;7476;49.404;11.152;2022-11-15T07:46:36;6.57;;;5.70;;
14768;SDS011;7476;49.404;11.152;2022-11-15T07:49:04;8.33;;;5.87;;
14768;SDS011;7476;49.404;11.152;2022-11-15T07:51:31;7.43;;;5.60;;
14768;SDS011;7476;49.404;11.152;2022-11-15T07:53:58;8.17;;;5.90;;
14768;SDS011;7476;49.404;11.152;2022-11-15T07:56:24;8.83;;;5.70;;
14768;SDS011;7476;49.404;11.152;2022-11-15T07:58:51;6.40;;;5.43;;
14768;SDS011;7476;49.404;11.152;2022-11-15T08:01:18;5.93;;;5.30;;
14768;SDS011;7476;49.404;11.152;2022-11-15T08:03:45;5.60;;;5.00;;
14768;SDS011;7476;49.404;11.152;2022-11-15T08:06:13;7.63;;;5.57;;
14768;SDS011;7476;49.404;11.152;2022-11-15T08:08:40;6.03;;;5.23;;
14768;SDS011;7476;49.404;11.152;2022-11-15T08:11:06;6.07;;;5.03;;
14768;SDS011;7476;49.404;11.152;2022-11-15T08:13:34;7.17;;;5.77;;
14768;SDS011;7476;49.404;11.152;2022-11-15T08:16:01;6.07;;;5.30;;
14768;SDS011;7476;49.404;11.152;2022-11-15T08:18:30;6.10;;;4.70;;
14768;SDS011;7476;49.404;11.152;2022-11-15T08:20:58;6.67;;;4.83;;
14768;SDS011;7476;49.404;11.152;2022-11-15T08:23:27;6.20;;;4.90;;
14768;SDS011;7476;49.404;11.152;2022-11-15T08:25:58;4.93;;;4.43;;
14768;SDS011;7476;49.404;11.152;2022-11-15T08:28:26;5.50;;;4.50;;
14768;SDS011;7476;49.404;11.152;2022-11-15T08:30:53;4.93;;;4.43;;
14768;SDS011;7476;49.404;11.152;2022-11-15T08:33:20;6.10;;;4.53;;
14768;SDS011;7476;49.404;11.152;2022-11-15T08:35:46;4.40;;;4.00;;
14768;SDS011;7476;49.404;11.152;2022-11-15T08:38:14;6.17;;;4.57;;
14768;SDS011;7476;49.404;11.152;2022-11-15T08:40:42;4.80;;;4.07;;
14768;SDS011;7476;49.404;11.152;2022-11-15T08:43:09;3.90;;;3.40;;
14768;SDS011;7476;49.404;11.152;2022-11-15T08:45:35;5.63;;;4.23;;
14768;SDS011;7476;49.404;11.152;2022-11-15T08:48:02;4.30;;;3.90;;
14768;SDS011;7476;49.404;11.152;2022-11-15T08:50:30;5.33;;;4.20;;
14768;SDS011;7476;49.404;11.152;2022-11-15T08:52:57;5.13;;;3.93;;
14768;SDS011;7476;49.404;11.152;2022-11-15T08:55:29;7.43;;;3.60;;
14768;SDS011;7476;49.404;11.152;2022-11-15T08:57:58;4.20;;;3.63;;
14768;SDS011;7476;49.404;11.152;2022-11-15T09:00:25;4.50;;;3.47;;
14768;SDS011;7476;49.404;11.152;2022-11-15T09:02:51;4.80;;;3.67;;
14768;SDS011;7476;49.404;11.152;2022-11-15T09:05:18;4.40;;;3.63;;
14768;SDS011;7476;49.404;11.152;2022-11-15T09:07:45;4.03;;;3.27;;
14768;SDS011;7476;49.404;11.152;2022-11-15T09:10:12;4.10;;;3.70;;
14768;SDS011;7476;49.404;11.152;2022-11-15T09:12:38;7.40;;;3.73;;
14768;SDS011;7476;49.404;11.152;2022-11-15T09:15:07;4.50;;;3.57;;
14768;SDS011;7476;49.404;11.152;2022-11-15T09:17:35;4.40;;;3.70;;
14768;SDS011;7476;49.404;11.152;2022-11-15T09:20:02;4.37;;;3.40;;
14768;SDS011;7476;49.404;11.152;2022-11-15T09:22:29;4.20;;;3.20;;
14768;SDS011;7476;49.404;11.152;2022-11-15T09:24:56;5.00;;;3.93;;
14768;SDS011;7476;49.404;11.152;2022-11-15T09:27:23;4.60;;;3.57;;
14768;SDS011;7476;49.404;11.152;2022-11-15T09:29:53;4.50;;;3.50;;
14768;SDS011;7476;49.404;11.152;2022-11-15T09:32:21;4.57;;;3.07;;
14768;SDS011;7476;49.404;11.152;2022-11-15T09:34:48;3.47;;;3.17;;
14768;SDS011;7476;49.404;11.152;2022-11-15T09:37:15;4.83;;;2.87;;
14768;SDS011;7476;49.404;11.152;2022-11-15T09:39:42;3.80;;;3.40;;
14768;SDS011;7476;49.404;11.152;2022-11-15T09:42:22;3.43;;;3.00;;
14768;SDS011;7476;49.404;11.152;2022-11-15T09:45:07;3.30;;;3.00;;
14768;SDS011;7476;49.404;11.152;2022-11-15T09:47:46;4.27;;;3.50;;
14768;SDS011;7476;49.404;11.152;2022-11-15T09:50:27;3.47;;;3.17;;
14768;SDS011;7476;49.404;11.152;2022-11-15T09:52:57;3.10;;;2.70;;
14768;SDS011;7476;49.404;11.152;2022-11-15T09:55:26;3.03;;;2.70;;
14768;SDS011;7476;49.404;11.152;2022-11-15T09:58:03;3.13;;;2.83;;
14768;SDS011;7476;49.404;11.152;2022-11-15T10:00:38;3.90;;;3.13;;
14768;SDS011;7476;49.404;11.152;2022-11-15T10:03:11;3.43;;;2.80;;
14768;SDS011;7476;49.404;11.152;2022-11-15T10:05:40;3.60;;;2.70;;
14768;SDS011;7476;49.404;11.152;2022-11-15T10:11:09;3.60;;;3.10;;
14768;SDS011;7476;49.404;11.152;2022-11-15T10:13:40;3.40;;;2.53;;
14768;SDS011;7476;49.404;11.152;2022-11-15T10:16:14;3.10;;;2.60;;
14768;SDS011;7476;49.404;11.152;2022-11-15T10:18:55;2.73;;;2.53;;
14768;SDS011;7476;49.404;11.152;2022-11-15T10:21:29;2.67;;;2.33;;
14768;SDS011;7476;49.404;11.152;2022-11-15T10:24:06;2.93;;;2.57;;
14768;SDS011;7476;49.404;11.152;2022-11-15T10:26:37;3.80;;;2.70;;
14768;SDS011;7476;49.404;11.152;2022-11-15T10:29:05;3.53;;;2.43;;
14768;SDS011;7476;49.404;11.152;2022-11-15T10:31:31;3.10;;;2.50;;
14768;SDS011;7476;49.404;11.152;2022-11-15T10:34:05;2.87;;;2.57;;
14768;SDS011;7476;49.404;11.152;2022-11-15T10:36:38;2.60;;;2.40;;
14768;SDS011;7476;49.404;11.152;2022-11-15T10:39:11;2.60;;;2.40;;
14768;SDS011;7476;49.404;11.152;2022-11-15T10:41:39;3.57;;;2.40;;
14768;SDS011;7476;49.404;11.152;2022-11-15T10:44:12;3.00;;;2.53;;
14768;SDS011;7476;49.404;11.152;2022-11-15T10:46:48;3.43;;;2.40;;
14768;SDS011;7476;49.404;11.152;2022-11-15T10:49:33;2.70;;;2.50;;
14768;SDS011;7476;49.404;11.152;2022-11-15T10:52:01;3.03;;;2.33;;
14768;SDS011;7476;49.404;11.152;2022-11-15T10:54:35;3.80;;;2.40;;
14768;SDS011;7476;49.404;11.152;2022-11-15T10:57:06;2.93;;;2.40;;
14768;SDS011;7476;49.404;11.152;2022-11-15T10:59:37;3.00;;;2.30;;
14768;SDS011;7476;49.404;11.152;2022-11-15T11:04:58;3.47;;;2.40;;
14768;SDS011;7476;49.404;11.152;2022-11-15T11:07:26;2.40;;;2.13;;
14768;SDS011;7476;49.404;11.152;2022-11-15T11:09:58;3.20;;;2.30;;
14768;SDS011;7476;49.404;11.152;2022-11-15T11:12:27;2.57;;;2.30;;
14768;SDS011;7476;49.404;11.152;2022-11-15T11:14:56;3.23;;;2.20;;
14768;SDS011;7476;49.404;11.152;2022-11-15T11:17:27;3.07;;;2.30;;
14768;SDS011;7476;49.404;11.152;2022-11-15T11:20:02;2.93;;;2.47;;
14768;SDS011;7476;49.404;11.152;2022-11-15T11:22:37;2.30;;;2.10;;
14768;SDS011;7476;49.404;11.152;2022-11-15T11:25:16;3.20;;;2.00;;
14768;SDS011;7476;49.404;11.152;2022-11-15T11:27:52;2.43;;;2.07;;
14768;SDS011;7476;49.404;11.152;2022-11-15T11:30:33;2.70;;;2.20;;
14768;SDS011;7476;49.404;11.152;2022-11-15T11:33:14;2.90;;;2.03;;
14768;SDS011;7476;49.404;11.152;2022-11-15T11:35:50;2.93;;;2.53;;
14768;SDS011;7476;49.404;11.152;2022-11-15T11:38:32;3.07;;;2.07;;
14768;SDS011;7476;49.404;11.152;2022-11-15T11:41:10;2.70;;;2.07;;
14768;SDS011;7476;49.404;11.152;2022-11-15T11:43:48;3.30;;;2.20;;
14768;SDS011;7476;49.404;11.152;2022-11-15T11:46:31;4.13;;;2.33;;
14768;SDS011;7476;49.404;11.152;2022-11-15T11:49:15;2.80;;;2.40;;
14768;SDS011;7476;49.404;11.152;2022-11-15T11:51:49;2.27;;;2.07;;
14768;SDS011;7476;49.404;11.152;2022-11-15T11:54:20;2.77;;;2.00;;
14768;SDS011;7476;49.404;11.152;2022-11-15T11:56:51;2.93;;;2.10;;
14768;SDS011;7476;49.404;11.152;2022-11-15T11:59:25;3.47;;;2.30;;
14768;SDS011;7476;49.404;11.152;2022-11-15T12:02:01;2.90;;;2.43;;
14768;SDS011;7476;49.404;11.152;2022-11-15T12:04:38;3.10;;;2.10;;
14768;SDS011;7476;49.404;11.152;2022-11-15T12:07:11;2.10;;;1.90;;
14768;SDS011;7476;49.404;11.152;2022-11-15T12:09:51;2.60;;;2.10;;
14768;SDS011;7476;49.404;11.152;2022-11-15T12:12:25;3.37;;;2.17;;
14768;SDS011;7476;49.404;11.152;2022-11-15T12:14:56;2.40;;;2.07;;
14768;SDS011;7476;49.404;11.152;2022-11-15T12:17:28;3.90;;;2.20;;
14768;SDS011;7476;49.404;11.152;2022-11-15T12:19:57;3.90;;;2.10;;
14768;SDS011;7476;49.404;11.152;2022-11-15T12:22:28;2.87;;;2.43;;
14768;SDS011;7476;49.404;11.152;2022-11-15T12:25:05;2.77;;;2.00;;
14768;SDS011;7476;49.404;11.152;2022-11-15T12:27:36;5.43;;;2.50;;
14768;SDS011;7476;49.404;11.152;2022-11-15T12:30:08;3.83;;;2.10;;
14768;SDS011;7476;49.404;11.152;2022-11-15T12:32:38;2.50;;;2.30;;
14768;SDS011;7476;49.404;11.152;2022-11-15T12:35:20;3.63;;;2.20;;
14768;SDS011;7476;49.404;11.152;2022-11-15T12:37:50;3.53;;;2.67;;
14768;SDS011;7476;49.404;11.152;2022-11-15T12:40:27;2.77;;;2.33;;
14768;SDS011;7476;49.404;11.152;2022-11-15T12:43:32;3.47;;;2.30;;
14768;SDS011;7476;49.404;11.152;2022-11-15T12:46:10;2.90;;;2.33;;
14768;SDS011;7476;49.404;11.152;2022-11-15T12:48:46;3.23;;;2.20;;
14768;SDS011;7476;49.404;11.152;2022-11-15T12:51:15;5.40;;;2.50;;
14768;SDS011;7476;49.404;11.152;2022-11-15T12:53:44;3.27;;;2.17;;
14768;SDS011;7476;49.404;11.152;2022-11-15T12:56:18;3.10;;;2.40;;
14768;SDS011;7476;49.404;11.152;2022-11-15T12:58:51;3.07;;;2.37;;
14768;SDS011;7476;49.404;11.152;2022-11-15T13:04:24;3.60;;;2.23;;
14768;SDS011;7476;49.404;11.152;2022-11-15T13:06:53;2.97;;;2.30;;
14768;SDS011;7476;49.404;11.152;2022-11-15T13:15:33;3.50;;;2.73;;
14768;SDS011;7476;49.404;11.152;2022-11-15T13:21:00;3.60;;;2.30;;
14768;SDS011;7476;49.404;11.152;2022-11-15T13:23:51;4.63;;;2.83;;
14768;SDS011;7476;49.404;11.152;2022-11-15T13:26:19;4.10;;;2.50;;
14768;SDS011;7476;49.404;11.152;2022-11-15T13:28:47;3.10;;;2.50;;
14768;SDS011;7476;49.404;11.152;2022-11-15T13:31:23;3.37;;;2.53;;
14768;SDS011;7476;49.404;11.152;2022-11-15T13:33:56;4.50;;;2.80;;
14768;SDS011;7476;49.404;11.152;2022-11-15T13:36:26;4.03;;;2.77;;
14768;SDS011;7476;49.404;11.152;2022-11-15T13:38:58;2.77;;;2.50;;
14768;SDS011;7476;49.404;11.152;2022-11-15T13:41:28;2.60;;;2.40;;
14768;SDS011;7476;49.404;11.152;2022-11-15T13:43:58;3.23;;;2.37;;
14768;SDS011;7476;49.404;11.152;2022-11-15T13:46:26;5.20;;;2.60;;
14768;SDS011;7476;49.404;11.152;2022-11-15T13:48:55;4.63;;;2.67;;
14768;SDS011;7476;49.404;11.152;2022-11-15T13:51:24;5.87;;;3.40;;
14768;SDS011;7476;49.404;11.152;2022-11-15T13:54:00;3.20;;;2.53;;
14768;SDS011;7476;49.404;11.152;2022-11-15T13:56:33;5.17;;;2.70;;
14768;SDS011;7476;49.404;11.152;2022-11-15T13:59:07;2.87;;;2.40;;
14768;SDS011;7476;49.404;11.152;2022-11-15T14:01:35;3.17;;;2.60;;
14768;SDS011;7476;49.404;11.152;2022-11-15T14:04:02;4.07;;;2.40;;
14768;SDS011;7476;49.404;11.152;2022-11-15T14:06:29;3.27;;;2.60;;
14768;SDS011;7476;49.404;11.152;2022-11-15T14:09:14;2.73;;;2.40;;
14768;SDS011;7476;49.404;11.152;2022-11-15T14:11:58;4.97;;;2.70;;
14768;SDS011;7476;49.404;11.152;2022-11-15T14:14:27;3.33;;;2.37;;
14768;SDS011;7476;49.404;11.152;2022-11-15T14:16:56;3.10;;;2.47;;
14768;SDS011;7476;49.404;11.152;2022-11-15T14:19:34;3.83;;;2.50;;
14768;SDS011;7476;49.404;11.152;2022-11-15T14:25:07;4.47;;;2.37;;
14768;SDS011;7476;49.404;11.152;2022-11-15T14:27:41;3.03;;;2.17;;
14768;SDS011;7476;49.404;11.152;2022-11-15T14:30:14;2.67;;;2.33;;
14768;SDS011;7476;49.404;11.152;2022-11-15T14:32:43;3.23;;;2.67;;
14768;SDS011;7476;49.404;11.152;2022-11-15T14:35:14;3.73;;;2.53;;
14768;SDS011;7476;49.404;11.152;2022-11-15T14:37:43;3.70;;;2.80;;
14768;SDS011;7476;49.404;11.152;2022-11-15T14:40:11;5.77;;;2.87;;
14768;SDS011;7476;49.404;11.152;2022-11-15T14:42:40;3.73;;;2.40;;
14768;SDS011;7476;49.404;11.152;2022-11-15T14:45:10;5.63;;;2.70;;
14768;SDS011;7476;49.404;11.152;2022-11-15T14:47:40;4.70;;;4.27;;
14768;SDS011;7476;49.404;11.152;2022-11-15T14:50:10;3.20;;;2.80;;
14768;SDS011;7476;49.404;11.152;2022-11-15T14:52:38;4.90;;;2.80;;
14768;SDS011;7476;49.404;11.152;2022-11-15T14:55:10;3.67;;;2.87;;
14768;SDS011;7476;49.404;11.152;2022-11-15T14:57:43;6.10;;;4.57;;
14768;SDS011;7476;49.404;11.152;2022-11-15T15:00:10;5.67;;;3.20;;
14768;SDS011;7476;49.404;11.152;2022-11-15T15:02:38;5.23;;;2.97;;
14768;SDS011;7476;49.404;11.152;2022-11-15T15:05:12;3.97;;;2.90;;
14768;SDS011;7476;49.404;11.152;2022-11-15T15:07:41;4.93;;;3.07;;
14768;SDS011;7476;49.404;11.152;2022-11-15T15:10:08;5.63;;;3.07;;
14768;SDS011;7476;49.404;11.152;2022-11-15T15:12:35;5.83;;;3.60;;
14768;SDS011;7476;49.404;11.152;2022-11-15T15:15:02;4.47;;;3.10;;
14768;SDS011;7476;49.404;11.152;2022-11-15T15:17:29;6.63;;;3.13;;
14768;SDS011;7476;49.404;11.152;2022-11-15T15:19:57;6.50;;;3.00;;
14768;SDS011;7476;49.404;11.152;2022-11-15T15:22:24;5.03;;;2.97;;
14768;SDS011;7476;49.404;11.152;2022-11-15T15:24:54;4.63;;;2.97;;
14768;SDS011;7476;49.404;11.152;2022-11-15T15:27:21;3.60;;;2.90;;
14768;SDS011;7476;49.404;11.152;2022-11-15T15:29:47;5.30;;;3.10;;